»·PEaware :: DFGCW KAFF-KVEL

DFGCW :: KAFF-KVEL

FLIGHT INFORMATION

Flight Status: Arrived
Operator: Unknown
More flights by this operator :: More flights under this callsign
Pilot: Klaus A. (15485)
Aircraft: PILATUS PC-12 EAGLE
(PC12)
More flights by this aircraft type
Origin: KAFF USAF Academy
United States
Destination: KVEL Vernal
United States
More flights between these airports :: More routes between these airports
Route: ++ FQF + DBL V108 EKR V200 BONGO
File this flight plan on PilotEdge
Remarks: PBN / D2 DOF / 181022 REG / DFGCW EET / KZLC0054 PER / B RMK / TCAS SIMBRIEF
Altitude:
(Current/Filed)
24,000ft
Speed:
(Current/Filed)
275kts
Departed: 22-Oct-18 07:40 AM
Arrived: 22-Oct-18 08:52 AM
Distance/Time
Traveled:
234nm/1:12
Distance/Time
To Go:
Arrived

Flight Plot

Page will automatically refresh every two minutes.

Flight plan parsing failed; only flown route is shown


Map Options




Map Legend


Flown Route
Filed Route
Departure Airport
Arrival Airport
Navaid (VOR, NDB)
Fix

Horizontal Profiles

Position Reports

Time Latitude Longitude Heading Altitude Ground
Speed
22-Oct-18 07:26 38.972462 -104.813605 259 6576ft 0kts
22-Oct-18 07:27 38.972462 -104.813605 259 6576ft 0kts
22-Oct-18 07:28 38.972462 -104.813605 259 6576ft 0kts
22-Oct-18 07:29 38.972462 -104.813605 259 6576ft 0kts
22-Oct-18 07:30 38.972462 -104.813605 259 6576ft 0kts
22-Oct-18 07:31 38.972462 -104.813605 259 6576ft 0kts
22-Oct-18 07:32 38.972462 -104.813605 259 6576ft 0kts
22-Oct-18 07:33 38.972462 -104.813605 259 6576ft 0kts
22-Oct-18 07:34 38.972462 -104.813605 259 6576ft 0kts
22-Oct-18 07:35 38.972462 -104.813605 259 6576ft 0kts
22-Oct-18 07:36 38.972462 -104.813605 259 6576ft 0kts
22-Oct-18 07:37 38.972462 -104.813605 259 6576ft 0kts
22-Oct-18 07:38 38.972236 -104.814348 223 6576ft 10kts
22-Oct-18 07:39 38.969919 -104.815896 242 6576ft 13kts
22-Oct-18 07:40 38.969854 -104.816050 240 6577ft 0kts
22-Oct-18 07:41 38.969778 -104.816207 236 6576ft 7kts
22-Oct-18 07:42 38.972656 -104.817560 350 6577ft 81kts
22-Oct-18 07:43 39.011803 -104.813553 12 8329ft 140kts
22-Oct-18 07:44 39.046652 -104.799926 19 9217ft 194kts
22-Oct-18 07:45 39.098584 -104.783156 12 11029ft 188kts
22-Oct-18 07:46 39.156548 -104.766793 12 12871ft 189kts
22-Oct-18 07:47 39.199726 -104.755254 11 14158ft 193kts
22-Oct-18 07:48 39.252483 -104.740955 9 15865ft 197kts
22-Oct-18 07:49 39.306278 -104.726349 8 17397ft 200kts
22-Oct-18 07:50 39.361518 -104.712419 349 18751ft 202kts
22-Oct-18 07:51 39.384542 -104.768267 281 19966ft 190kts
22-Oct-18 07:52 39.398374 -104.834942 281 21098ft 194kts
22-Oct-18 07:53 39.405428 -104.903429 268 22122ft 194kts
22-Oct-18 07:54 39.407002 -104.973947 268 23055ft 197kts
22-Oct-18 07:55 39.408732 -105.045075 268 23900ft 199kts
22-Oct-18 07:56 39.410576 -105.120318 269 24288ft 218kts
22-Oct-18 07:57 39.412577 -105.202723 269 24285ft 238kts
22-Oct-18 07:58 39.414614 -105.289998 269 24283ft 247kts
22-Oct-18 07:59 39.416621 -105.378902 269 24332ft 249kts
22-Oct-18 08:00 39.418522 -105.467451 269 24529ft 246kts
22-Oct-18 08:01 39.420384 -105.556812 269 24529ft 250kts
22-Oct-18 08:02 39.422219 -105.645932 269 24528ft 249kts
22-Oct-18 08:03 39.423470 -105.733699 268 24522ft 249kts
22-Oct-18 08:04 39.425065 -105.820026 268 24521ft 249kts
22-Oct-18 08:05 39.426693 -105.909630 268 24521ft 249kts
22-Oct-18 08:06 39.428184 -105.999078 268 24521ft 249kts
22-Oct-18 08:07 39.429646 -106.088636 268 24521ft 249kts
22-Oct-18 08:08 39.431053 -106.178399 268 24520ft 249kts
22-Oct-18 08:09 39.432386 -106.267924 268 24519ft 249kts
22-Oct-18 08:10 39.433629 -106.357575 268 24519ft 250kts
22-Oct-18 08:11 39.434828 -106.448222 268 24428ft 252kts
22-Oct-18 08:12 39.435954 -106.538706 268 24428ft 251kts
22-Oct-18 08:13 39.437012 -106.629395 268 24336ft 253kts
22-Oct-18 08:14 39.437692 -106.718918 267 24338ft 252kts
22-Oct-18 08:15 39.438596 -106.809387 267 24338ft 252kts
22-Oct-18 08:16 39.455764 -106.894316 307 24344ft 263kts
22-Oct-18 08:17 39.499653 -106.968448 298 24394ft 260kts
22-Oct-18 08:18 39.537747 -107.048223 296 24393ft 260kts
22-Oct-18 08:19 39.582659 -107.122220 305 24394ft 263kts
22-Oct-18 08:20 39.628795 -107.194984 304 24489ft 260kts
22-Oct-18 08:21 39.674933 -107.268273 305 24447ft 263kts
22-Oct-18 08:22 39.715605 -107.345847 302 24494ft 262kts
22-Oct-18 08:23 39.760328 -107.421089 304 24495ft 263kts
22-Oct-18 08:24 39.803656 -107.492026 304 24373ft 267kts
22-Oct-18 08:25 39.849812 -107.567301 304 24292ft 265kts
22-Oct-18 08:26 39.895516 -107.642014 304 24301ft 263kts
22-Oct-18 08:27 39.939829 -107.716010 303 24304ft 263kts
22-Oct-18 08:28 39.985398 -107.790656 303 24304ft 263kts
22-Oct-18 08:29 40.030874 -107.865609 303 24304ft 264kts
22-Oct-18 08:30 40.062127 -107.946551 267 24308ft 250kts
22-Oct-18 08:31 40.072050 -108.035984 267 24326ft 249kts
22-Oct-18 08:32 40.074958 -108.128298 268 23407ft 251kts
22-Oct-18 08:33 40.078210 -108.218013 268 22225ft 248kts
22-Oct-18 08:34 40.081511 -108.307991 269 21039ft 249kts
22-Oct-18 08:35 40.084776 -108.398246 269 19856ft 250kts
22-Oct-18 08:36 40.087992 -108.488921 269 18670ft 250kts
22-Oct-18 08:37 40.091134 -108.579606 269 17483ft 250kts
22-Oct-18 08:38 40.093984 -108.667618 268 16327ft 249kts
22-Oct-18 08:39 40.096593 -108.757583 269 15146ft 247kts
22-Oct-18 08:40 40.099484 -108.846978 268 13967ft 246kts
22-Oct-18 08:41 40.102613 -108.934983 269 12781ft 246kts
22-Oct-18 08:42 40.105234 -109.023147 269 11992ft 232kts
22-Oct-18 08:43 40.107617 -109.103965 269 11995ft 217kts
22-Oct-18 08:44 40.109860 -109.181434 269 11993ft 207kts
22-Oct-18 08:45 40.111874 -109.255193 269 11995ft 200kts
22-Oct-18 08:46 40.113970 -109.328002 268 11995ft 201kts
22-Oct-18 08:47 40.151849 -109.372730 341 11810ft 216kts
22-Oct-18 08:48 40.208878 -109.399332 337 10613ft 222kts
22-Oct-18 08:49 40.266395 -109.430066 335 9313ft 224kts
22-Oct-18 08:50 40.323186 -109.461554 334 8008ft 219kts
22-Oct-18 08:51 40.368306 -109.487284 329 7460ft 145kts
22-Oct-18 08:52 40.403603 -109.502942 339 6135ft 128kts
22-Oct-18 08:53 40.433178 -109.510420 356 5282ft 86kts
22-Oct-18 08:54 40.441081 -109.511516 324 5282ft 7kts
22-Oct-18 08:55 40.441189 -109.511569 350 5282ft 0kts
22-Oct-18 08:56 40.441478 -109.511578 1 5281ft 7kts
22-Oct-18 08:57 40.442114 -109.513559 218 5282ft 7kts
22-Oct-18 08:58 40.441862 -109.513281 41 5282ft 0kts
22-Oct-18 08:59 40.441862 -109.513281 41 5282ft 0kts
22-Oct-18 09:00 40.441862 -109.513281 41 5282ft 0kts
22-Oct-18 09:01 40.441862 -109.513281 41 5282ft 0kts
22-Oct-18 09:02 40.441862 -109.513281 41 5282ft 0kts
22-Oct-18 09:03 40.441862 -109.513281 41 5282ft 0kts
22-Oct-18 09:04 40.441862 -109.513281 41 5282ft 0kts
22-Oct-18 09:05 40.441862 -109.513281 41 5282ft 0kts
22-Oct-18 09:06 40.441862 -109.513281 41 5282ft 0kts
22-Oct-18 09:07 40.441862 -109.513281 41 5282ft 0kts

Navigation Log

Ident Type
Flight plan parsing failed, navigation log unavailable